Hauptseite
METAR-TAF:

METAR-TAF

Flughäfen :

London-Heathrow, England

Flughafen London Heathrow

Breite: 51-29N, Länge: 000-27W, Höhe: 24 m

Beobachtung

Neuester Wetterbericht von vor 35 Minuten, um 17:50 UTC
Wind 13 kt aus West
Temperatur 18°C
Luftfeuchtigkeit 56%
Luftdruck 1009 hPa
Sichtweite 10 km oder mehr
Aufgelockert bewölkt in der Höhe von 3800 ft
Durchbrochene Bewölkung in der Höhe von 4500 ft

METAR: EGLL 221750Z AUTO 28013KT 9999 SCT038 BKN045 18/09 Q1009 NOSIG

Zeit: 19:25 (18:25 UTC)

Prognose

Neuester Wetterbericht von vor 1 Stunde und 33 Minuten, um 16:52 UTC
Gültige Prognose vom 22 um 18 UTC bis 23 um 24 UTC
Wind 10 kt aus West
Sichtweite 10 km oder mehr
Leicht bewölkt in der Höhe von 4500 ft
Übergehend zu
vom 23 um 18 UTC bis 23 um 21 UTC
Wind 8 kt aus Südwest

TAF: EGLL 221652Z 2218/2324 28010KT 9999 FEW045 BECMG 2318/2321 22008KT

Wetterbeobachtungen und Prognosen von mehr als 4000 Flughäfen (METAR und TAF Bericht).

Die verfügbaren Stationen werden durch gelbe und rote Markierungen auf der Karte dargestellt.

Führen Sie die Maus auf sie, um den Namen der Station zu sehen.

Darauf klicken, um die Beobachtung von Wetterbeobachtungen und Prognosen zu sehen.

Um die Karte zu ändern : klicken Sie auf den grünen Tasten mit einem schwarzen Kreuz Zum Vergrößern, auf den grünen Button mit einem Gedankenstrich zu verkleinern, oder auf die grünen Pfeile für benachbarte Karten.


METAR-TAF: